Time;durP1;ratioP1;P1;durP2;ratioP2;P2;SDS_P1;SDS_P2;PMS_P1;PMS_P2;Temp;Humidity;BMP_temperature;BMP_pressure;BME280_temperature;BME280_humidity;BME280_pressure;Samples;Min_cycle;Max_cycle;Signal;HPM_P1;HPM_P2
2022/05/31 00:00:15;;;;;;;5.07;3.27;;;11.00;99.90;;;;;;5074765;28;20204;-38
2022/05/31 00:02:42;;;;;;;6.67;3.43;;;10.90;99.90;;;;;;5076100;28;20184;-41
2022/05/31 00:05:09;;;;;;;5.90;3.23;;;10.90;99.90;;;;;;5076135;28;20321;-39
2022/05/31 00:07:39;;;;;;;4.33;3.70;;;10.80;99.90;;;;;;5076136;28;20620;-38
2022/05/31 00:10:06;;;;;;;5.90;3.40;;;10.80;99.90;;;;;;5058116;28;20659;-39
2022/05/31 00:12:32;;;;;;;6.17;3.70;;;10.80;99.90;;;;;;5076188;28;20177;-37
2022/05/31 00:14:59;;;;;;;3.97;3.53;;;10.70;99.90;;;;;;5075992;28;20553;-39
2022/05/31 00:17:25;;;;;;;5.23;3.67;;;10.70;99.90;;;;;;5075548;28;20669;-45
2022/05/31 00:19:51;;;;;;;5.87;3.87;;;10.70;99.90;;;;;;5075524;28;20206;-44
2022/05/31 00:22:20;;;;;;;8.37;4.23;;;10.60;99.90;;;;;;5075477;28;20184;-44
2022/05/31 00:24:46;;;;;;;5.17;3.93;;;10.70;99.90;;;;;;5075649;28;20178;-46
2022/05/31 00:27:14;;;;;;;5.17;3.70;;;10.70;99.90;;;;;;5075569;28;20186;-44
2022/05/31 00:29:40;;;;;;;7.77;4.00;;;10.60;99.90;;;;;;5057330;28;20200;-43
2022/05/31 00:32:09;;;;;;;9.03;4.30;;;10.60;99.90;;;;;;5075204;28;20206;-44
2022/05/31 00:34:37;;;;;;;7.17;4.10;;;10.60;99.90;;;;;;5075490;28;20185;-45
2022/05/31 00:37:04;;;;;;;7.63;4.03;;;10.50;99.90;;;;;;5075337;28;20179;-44
2022/05/31 00:39:30;;;;;;;6.37;4.27;;;10.50;99.90;;;;;;5074980;28;20250;-45
2022/05/31 00:42:01;;;;;;;8.00;5.20;;;10.50;99.90;;;;;;5075195;28;20217;-47
2022/05/31 00:44:28;;;;;;;8.83;4.97;;;10.40;99.90;;;;;;5075345;28;20169;-45
2022/05/31 00:46:58;;;;;;;6.87;4.43;;;10.40;99.90;;;;;;5074989;28;20183;-45
2022/05/31 00:49:39;;;;;;;6.83;4.43;;;10.40;99.90;;;;;;5075024;28;20258;-46
2022/05/31 00:52:17;;;;;;;9.33;4.83;;;10.40;99.90;;;;;;5057049;28;20184;-45
2022/05/31 00:54:52;;;;;;;6.77;4.90;;;10.30;99.90;;;;;;5075242;28;20166;-44
2022/05/31 00:57:18;;;;;;;6.07;4.93;;;10.30;99.90;;;;;;5074813;28;20628;-44
2022/05/31 00:59:51;;;;;;;9.23;5.20;;;10.30;99.90;;;;;;5074819;28;20556;-44
2022/05/31 01:02:18;;;;;;;7.17;5.83;;;10.40;99.90;;;;;;5075065;28;20177;-44
2022/05/31 01:04:49;;;;;;;8.03;5.17;;;10.40;99.90;;;;;;5074560;28;20183;-46
2022/05/31 01:07:16;;;;;;;6.03;5.00;;;10.40;99.90;;;;;;5074854;28;20254;-45
2022/05/31 01:09:42;;;;;;;7.17;5.60;;;10.40;99.90;;;;;;5074747;28;20709;-44
2022/05/31 01:12:08;;;;;;;9.17;5.53;;;10.40;99.90;;;;;;5074495;28;20184;-38
2022/05/31 01:14:34;;;;;;;6.93;5.50;;;10.40;99.90;;;;;;5074747;28;20181;-38
2022/05/31 01:17:03;;;;;;;7.77;5.60;;;10.50;99.90;;;;;;5074628;28;20237;-46
2022/05/31 01:22:16;;;;;;;8.67;5.93;;;10.50;99.90;;;;;;5074476;28;20175;-42
2022/05/31 01:24:56;;;;;;;8.27;5.70;;;10.50;99.90;;;;;;5056719;28;20294;-39
2022/05/31 01:27:44;;;;;;;9.23;5.90;;;10.50;99.90;;;;;;5074000;28;20617;-40
2022/05/31 01:30:11;;;;;;;9.03;5.77;;;10.50;99.90;;;;;;5074125;28;20175;-39
2022/05/31 01:32:41;;;;;;;9.37;6.17;;;10.50;99.90;;;;;;5074053;28;20181;-40
2022/05/31 01:35:23;;;;;;;8.57;6.10;;;10.50;99.90;;;;;;5074101;28;20686;-40
2022/05/31 01:37:56;;;;;;;9.57;6.40;;;10.50;99.90;;;;;;5074109;28;20207;-40
2022/05/31 01:40:35;;;;;;;11.97;7.07;;;10.60;99.90;;;;;;5074332;28;20161;-39
2022/05/31 01:43:01;;;;;;;10.87;6.20;;;10.50;99.90;;;;;;5073999;28;20165;-39
2022/05/31 01:45:31;;;;;;;8.13;6.47;;;10.50;99.90;;;;;;5073973;28;20195;-39
2022/05/31 01:48:02;;;;;;;9.53;6.50;;;10.50;99.90;;;;;;5055812;28;20699;-39
2022/05/31 01:50:28;;;;;;;8.33;6.40;;;10.40;99.90;;;;;;5074101;28;20227;-40
2022/05/31 01:52:54;;;;;;;11.60;6.67;;;10.40;99.90;;;;;;5073954;28;20183;-41
2022/05/31 01:55:21;;;;;;;8.67;7.23;;;10.40;99.90;;;;;;5073874;28;20605;-40
2022/05/31 01:57:53;;;;;;;8.90;6.17;;;10.40;99.90;;;;;;5073460;28;20212;-41
2022/05/31 02:00:19;;;;;;;8.80;6.80;;;10.40;99.90;;;;;;5073732;28;20192;-40
2022/05/31 02:02:48;;;;;;;9.93;6.33;;;10.40;99.90;;;;;;5073794;28;20175;-39
2022/05/31 02:05:15;;;;;;;9.17;6.67;;;10.30;99.90;;;;;;5073493;28;20214;-41
2022/05/31 02:07:40;;;;;;;8.43;6.37;;;10.30;99.90;;;;;;5073471;28;20244;-39
2022/05/31 02:10:06;;;;;;;10.53;6.60;;;10.30;99.90;;;;;;5073728;28;20638;-40
2022/05/31 02:12:32;;;;;;;7.93;6.47;;;10.30;99.90;;;;;;5073686;28;20187;-39
2022/05/31 02:14:58;;;;;;;11.93;7.00;;;10.20;99.90;;;;;;5073381;28;20262;-41
2022/05/31 02:17:24;;;;;;;10.93;7.17;;;10.20;99.90;;;;;;5073275;28;20177;-41
2022/05/31 02:19:49;;;;;;;8.30;6.47;;;10.20;99.90;;;;;;5073845;28;20219;-40
2022/05/31 02:22:19;;;;;;;9.63;6.60;;;10.20;99.90;;;;;;5073279;28;20183;-40
2022/05/31 02:24:45;;;;;;;10.30;7.13;;;10.20;99.90;;;;;;5072882;28;20172;-41
2022/05/31 02:27:11;;;;;;;7.87;6.23;;;10.10;99.90;;;;;;5073160;28;20587;-41
2022/05/31 02:29:39;;;;;;;8.83;6.40;;;10.10;99.90;;;;;;5073259;28;20177;-40
2022/05/31 02:32:07;;;;;;;9.70;7.10;;;10.00;99.90;;;;;;5073695;28;20182;-41
2022/05/31 02:34:36;;;;;;;8.57;7.07;;;10.00;99.90;;;;;;5073178;28;20239;-42
2022/05/31 02:37:03;;;;;;;9.10;6.37;;;10.00;99.90;;;;;;5073482;28;20637;-40
2022/05/31 02:39:29;;;;;;;9.40;6.63;;;10.00;99.90;;;;;;5072988;28;20208;-41
2022/05/31 02:41:56;;;;;;;9.63;6.83;;;10.00;99.90;;;;;;5073089;28;20229;-40
2022/05/31 02:44:23;;;;;;;11.77;7.00;;;9.90;99.90;;;;;;5073411;28;20167;-38
2022/05/31 02:46:49;;;;;;;9.40;6.60;;;10.00;99.90;;;;;;5073014;28;20194;-39
2022/05/31 02:49:15;;;;;;;11.13;7.20;;;10.00;99.90;;;;;;5073247;28;20221;-39
2022/05/31 02:51:43;;;;;;;9.40;7.20;;;10.00;99.90;;;;;;5073074;28;20180;-39
2022/05/31 02:54:11;;;;;;;9.67;7.20;;;10.00;99.90;;;;;;5073203;28;20184;-39
2022/05/31 02:56:38;;;;;;;11.13;7.13;;;10.00;99.90;;;;;;5072927;28;20179;-41
2022/05/31 02:59:05;;;;;;;9.60;7.57;;;10.00;99.90;;;;;;5073081;28;20286;-40
2022/05/31 03:01:34;;;;;;;11.43;8.03;;;10.00;99.90;;;;;;5072883;28;20202;-39
2022/05/31 03:04:00;;;;;;;11.03;7.50;;;10.00;99.90;;;;;;5073190;28;20186;-41
2022/05/31 03:06:26;;;;;;;9.60;7.13;;;10.00;99.90;;;;;;5072813;28;20630;-38
2022/05/31 03:08:52;;;;;;;9.83;7.90;;;10.10;99.90;;;;;;5073044;28;20257;-37
2022/05/31 03:12:00;;;;;;;12.73;7.80;;;10.10;99.90;;;;;;5072860;28;20180;-39
2022/05/31 03:14:44;;;;;;;13.23;7.53;;;10.10;99.90;;;;;;5064504;28;20226;-39
2022/05/31 03:17:21;;;;;;;9.50;6.60;;;10.10;99.90;;;;;;5073277;28;20172;-40
2022/05/31 03:20:10;;;;;;;10.87;6.37;;;10.10;99.90;;;;;;5054559;28;20211;-40
2022/05/31 03:22:44;;;;;;;11.37;6.87;;;10.10;99.90;;;;;;5053907;28;20188;-39
2022/05/31 03:25:19;;;;;;;13.67;6.97;;;10.20;99.90;;;;;;5073018;28;20581;-40
2022/05/31 03:27:46;;;;;;;10.33;7.43;;;10.10;99.90;;;;;;5072843;28;20275;-39
2022/05/31 03:30:13;;;;;;;10.73;7.47;;;10.10;99.90;;;;;;5073186;28;20279;-40
2022/05/31 03:32:40;;;;;;;12.33;6.73;;;10.10;99.90;;;;;;5072776;28;20203;-40
2022/05/31 03:35:07;;;;;;;9.40;6.27;;;10.10;99.90;;;;;;5074034;28;20261;-39
2022/05/31 03:37:32;;;;;;;9.27;6.63;;;10.10;99.90;;;;;;5076381;28;20274;-40
2022/05/31 03:39:58;;;;;;;8.07;6.80;;;10.10;99.90;;;;;;5076149;28;20296;-40
2022/05/31 03:42:23;;;;;;;7.87;6.63;;;10.10;99.90;;;;;;5076210;28;20180;-43
2022/05/31 03:44:51;;;;;;;8.53;6.30;;;10.10;99.90;;;;;;5076485;28;20180;-39
2022/05/31 03:47:17;;;;;;;7.53;6.50;;;10.10;99.90;;;;;;5076267;28;20192;-40
2022/05/31 03:49:42;;;;;;;10.93;6.87;;;10.10;99.90;;;;;;5076239;28;20188;-38
2022/05/31 03:52:08;;;;;;;7.40;5.93;;;10.10;99.90;;;;;;5076350;28;20576;-40
2022/05/31 03:54:36;;;;;;;7.50;5.70;;;10.00;99.90;;;;;;5075914;28;20211;-39
2022/05/31 03:57:04;;;;;;;6.90;5.20;;;10.00;99.90;;;;;;5076072;28;20180;-40
2022/05/31 03:59:35;;;;;;;10.67;5.20;;;10.00;99.90;;;;;;5075984;28;20208;-39
2022/05/31 04:02:00;;;;;;;11.37;5.50;;;10.10;99.90;;;;;;5076164;28;20163;-41
2022/05/31 04:04:26;;;;;;;7.53;5.20;;;10.00;99.90;;;;;;5076336;28;20189;-39
2022/05/31 04:06:51;;;;;;;7.63;4.87;;;10.00;99.90;;;;;;5075876;28;20183;-39
2022/05/31 04:09:17;;;;;;;11.60;4.80;;;10.10;99.90;;;;;;5075946;28;20286;-40
2022/05/31 04:11:42;;;;;;;9.10;5.07;;;10.10;99.90;;;;;;5075867;28;20184;-42
2022/05/31 04:14:08;;;;;;;7.80;5.03;;;10.10;99.90;;;;;;5075612;28;20185;-39
2022/05/31 04:16:34;;;;;;;7.47;5.17;;;10.10;99.90;;;;;;5075890;28;20266;-39
2022/05/31 04:18:59;;;;;;;8.00;5.30;;;10.10;99.90;;;;;;5075344;28;20212;-40
2022/05/31 04:21:25;;;;;;;7.03;4.97;;;10.10;99.90;;;;;;5075664;28;20210;-41
2022/05/31 04:24:01;;;;;;;8.50;5.33;;;10.10;99.90;;;;;;5075422;28;20179;-41
2022/05/31 04:26:29;;;;;;;8.97;5.53;;;10.10;99.90;;;;;;5075612;28;20152;-42
2022/05/31 04:28:56;;;;;;;6.37;4.57;;;10.10;99.90;;;;;;5075150;28;20219;-41
2022/05/31 04:31:21;;;;;;;7.77;5.60;;;10.10;99.90;;;;;;5075699;28;20574;-40
2022/05/31 04:33:47;;;;;;;5.23;4.60;;;10.10;99.90;;;;;;5075494;28;20194;-41
2022/05/31 04:36:15;;;;;;;9.10;5.13;;;10.10;99.90;;;;;;5075224;28;20184;-40
2022/05/31 04:38:41;;;;;;;9.57;4.70;;;10.10;99.90;;;;;;5075040;28;20219;-41
2022/05/31 04:41:07;;;;;;;9.67;5.13;;;10.10;99.90;;;;;;5075442;28;20172;-41
2022/05/31 04:43:33;;;;;;;6.27;5.10;;;10.10;99.90;;;;;;5075878;28;20211;-40
2022/05/31 04:46:14;;;;;;;10.27;4.57;;;10.10;99.90;;;;;;5075061;28;20237;-40
2022/05/31 04:48:39;;;;;;;9.10;5.03;;;10.20;99.90;;;;;;5074916;28;20561;-40
2022/05/31 04:51:05;;;;;;;7.23;4.80;;;10.20;99.90;;;;;;5075047;28;20179;-42
2022/05/31 04:53:32;;;;;;;7.43;5.03;;;10.20;99.90;;;;;;5075449;28;20184;-39
2022/05/31 04:56:05;;;;;;;9.57;5.20;;;10.20;99.90;;;;;;5075046;28;20208;-37
2022/05/31 04:58:31;;;;;;;8.23;5.33;;;10.30;99.90;;;;;;5074781;28;20303;-40
2022/05/31 05:00:57;;;;;;;7.67;5.60;;;10.20;99.90;;;;;;5074697;28;20277;-38
2022/05/31 05:03:23;;;;;;;7.80;5.60;;;10.30;99.90;;;;;;5074685;28;20188;-40
2022/05/31 05:05:48;;;;;;;7.37;4.67;;;10.30;99.90;;;;;;5074934;28;20180;-42
2022/05/31 05:08:14;;;;;;;9.57;5.20;;;10.30;99.90;;;;;;5075318;28;20196;-40
2022/05/31 05:10:46;;;;;;;8.07;4.97;;;10.30;99.90;;;;;;5074680;28;20673;-39
2022/05/31 05:13:12;;;;;;;7.87;6.00;;;10.30;99.90;;;;;;5056603;28;20175;-39
2022/05/31 05:15:39;;;;;;;8.67;5.50;;;10.30;99.90;;;;;;5074657;28;20184;-39
2022/05/31 05:18:05;;;;;;;7.87;5.23;;;10.30;99.90;;;;;;5074415;28;20257;-39
2022/05/31 05:20:35;;;;;;;9.93;5.33;;;10.30;99.90;;;;;;5074611;28;20612;-42
2022/05/31 05:23:06;;;;;;;9.17;5.13;;;10.30;99.90;;;;;;5074615;28;20553;-41
2022/05/31 05:25:32;;;;;;;6.37;5.10;;;10.20;99.90;;;;;;5074897;28;20183;-39
2022/05/31 05:27:58;;;;;;;7.27;5.00;;;10.20;99.90;;;;;;5074173;28;20624;-41
2022/05/31 05:30:38;;;;;;;8.33;4.43;;;10.10;99.90;;;;;;5074648;28;20522;-41
2022/05/31 05:33:04;;;;;;;11.67;4.40;;;10.10;99.90;;;;;;5074476;28;20520;-41
2022/05/31 05:35:29;;;;;;;7.33;4.90;;;10.10;99.90;;;;;;5074182;28;20168;-41
2022/05/31 05:37:55;;;;;;;5.90;4.43;;;10.10;99.90;;;;;;5074034;28;20195;-39
2022/05/31 05:40:20;;;;;;;8.23;4.27;;;10.10;99.90;;;;;;5074300;28;20648;-41
2022/05/31 05:42:46;;;;;;;5.03;3.80;;;10.20;99.90;;;;;;5073882;28;20203;-43
2022/05/31 05:45:12;;;;;;;7.57;5.20;;;10.20;99.90;;;;;;5074128;28;20301;-43
2022/05/31 05:47:38;;;;;;;7.03;4.80;;;10.20;99.90;;;;;;5073996;28;20200;-43
2022/05/31 05:50:04;;;;;;;8.40;4.70;;;10.20;99.90;;;;;;5073924;28;20253;-43
2022/05/31 05:52:31;;;;;;;8.23;4.60;;;10.30;99.90;;;;;;5073789;28;20176;-43
2022/05/31 05:54:56;;;;;;;5.93;4.47;;;10.30;99.90;;;;;;5073629;28;20598;-43
2022/05/31 05:57:22;;;;;;;6.57;4.67;;;10.40;99.90;;;;;;5073528;28;20205;-44
2022/05/31 05:59:47;;;;;;;5.93;4.70;;;10.50;99.90;;;;;;5072737;28;20273;-42
2022/05/31 06:02:23;;;;;;;7.60;4.50;;;10.50;99.90;;;;;;5073877;28;20218;-44
2022/05/31 06:04:56;;;;;;;8.47;5.40;;;10.50;99.90;;;;;;5073935;28;20155;-44
2022/05/31 06:07:30;;;;;;;6.20;4.97;;;10.60;99.90;;;;;;5073479;28;20168;-43
2022/05/31 06:10:06;;;;;;;5.73;4.73;;;10.60;99.90;;;;;;5073778;28;20199;-44
2022/05/31 06:12:38;;;;;;;7.27;5.13;;;10.70;99.90;;;;;;5073767;28;20164;-43
2022/05/31 06:15:14;;;;;;;10.17;6.20;;;10.80;99.90;;;;;;5055513;28;20199;-42
2022/05/31 06:17:44;;;;;;;11.50;4.97;;;10.80;99.90;;;;;;5073374;28;20696;-44
2022/05/31 06:20:11;;;;;;;7.40;5.30;;;10.80;99.90;;;;;;5073545;28;20237;-42
2022/05/31 06:22:39;;;;;;;8.70;5.43;;;10.90;99.90;;;;;;5073436;28;20168;-42
2022/05/31 06:25:05;;;;;;;8.10;5.57;;;10.90;99.90;;;;;;5073483;28;20183;-43
2022/05/31 06:27:31;;;;;;;7.77;5.27;;;11.00;99.90;;;;;;5073145;28;20722;-44
2022/05/31 06:29:56;;;;;;;8.30;5.30;;;11.10;99.90;;;;;;5073642;28;20206;-43
2022/05/31 06:32:22;;;;;;;5.40;4.70;;;11.20;99.90;;;;;;5073650;28;20172;-43
2022/05/31 06:34:48;;;;;;;7.33;5.30;;;11.30;99.90;;;;;;5073446;28;20188;-43
2022/05/31 06:37:15;;;;;;;5.97;5.00;;;11.50;99.90;;;;;;5073221;28;20183;-42
2022/05/31 06:39:44;;;;;;;7.80;5.10;;;11.50;99.90;;;;;;5073176;28;20199;-44
2022/05/31 06:42:11;;;;;;;10.40;5.20;;;11.70;99.90;;;;;;5073616;28;20562;-45
2022/05/31 06:44:39;;;;;;;7.30;4.93;;;11.90;99.90;;;;;;5073578;28;20673;-43
2022/05/31 06:47:05;;;;;;;7.03;4.50;;;12.20;99.90;;;;;;5073356;28;20193;-44
2022/05/31 06:49:31;;;;;;;6.40;4.60;;;12.50;99.90;;;;;;5073210;28;20197;-45
2022/05/31 06:57:31;;;;;;;5.13;3.80;;;13.10;99.90;;;;;;5073260;28;20303;-42
2022/05/31 06:59:57;;;;;;;3.93;3.20;;;13.30;99.90;;;;;;5072895;28;20225;-43
2022/05/31 07:02:23;;;;;;;3.30;2.70;;;13.40;99.90;;;;;;5073447;28;20170;-42
2022/05/31 07:04:48;;;;;;;3.57;2.43;;;13.60;99.90;;;;;;5073271;28;20198;-43
2022/05/31 07:07:14;;;;;;;7.10;3.13;;;13.70;99.90;;;;;;5072839;28;20516;-42
2022/05/31 07:09:40;;;;;;;7.07;2.67;;;13.90;99.90;;;;;;5074379;28;20177;-44
2022/05/31 07:12:06;;;;;;;5.53;2.93;;;13.90;99.90;;;;;;5076984;28;20725;-45
2022/05/31 07:14:32;;;;;;;3.77;2.83;;;14.00;99.90;;;;;;5077280;28;20182;-43
2022/05/31 07:16:57;;;;;;;6.33;3.70;;;14.10;99.90;;;;;;5077085;28;20680;-44
2022/05/31 07:19:23;;;;;;;4.60;3.20;;;14.20;99.90;;;;;;5076923;28;20249;-45
2022/05/31 07:21:49;;;;;;;4.57;3.20;;;14.40;99.90;;;;;;5076941;28;20674;-45
2022/05/31 07:24:14;;;;;;;6.00;3.50;;;14.50;99.90;;;;;;5058639;28;20370;-46
2022/05/31 07:26:40;;;;;;;4.50;3.23;;;14.60;99.90;;;;;;5076578;28;20259;-44
2022/05/31 07:29:06;;;;;;;4.80;3.40;;;14.80;99.90;;;;;;5076701;28;20268;-45
2022/05/31 07:31:34;;;;;;;5.33;3.40;;;14.90;99.90;;;;;;5076717;28;20179;-45
2022/05/31 07:34:00;;;;;;;4.13;3.10;;;14.90;99.90;;;;;;5058659;28;20172;-46
2022/05/31 07:36:27;;;;;;;6.83;3.80;;;15.00;99.90;;;;;;5076223;28;20600;-46
2022/05/31 07:38:53;;;;;;;6.13;3.73;;;15.00;99.90;;;;;;5058749;28;20207;-46
2022/05/31 07:41:19;;;;;;;7.63;4.03;;;15.00;99.90;;;;;;5076276;28;20188;-47
2022/05/31 07:43:45;;;;;;;4.90;4.00;;;15.00;99.90;;;;;;5058440;28;20169;-44
2022/05/31 07:46:13;;;;;;;5.57;4.10;;;15.00;99.90;;;;;;5076105;28;20198;-46
2022/05/31 07:48:40;;;;;;;5.70;3.90;;;15.10;99.90;;;;;;5058134;28;20199;-45
2022/05/31 07:51:07;;;;;;;7.00;3.57;;;15.00;99.90;;;;;;5076310;28;20538;-44
2022/05/31 07:53:33;;;;;;;5.40;3.53;;;15.00;99.90;;;;;;5076103;28;20180;-45
2022/05/31 07:56:06;;;;;;;6.93;3.77;;;15.00;99.90;;;;;;5075986;28;20199;-45
2022/05/31 07:58:36;;;;;;;6.00;3.60;;;15.00;99.90;;;;;;5076088;28;20594;-47
2022/05/31 08:01:13;;;;;;;6.23;3.87;;;15.10;99.90;;;;;;5075904;28;20188;-45
2022/05/31 08:03:39;;;;;;;6.23;3.77;;;15.20;99.90;;;;;;5075931;28;20205;-47
2022/05/31 08:06:10;;;;;;;6.00;3.40;;;15.20;99.90;;;;;;5075788;28;20239;-46
2022/05/31 08:08:36;;;;;;;7.77;3.93;;;15.20;99.90;;;;;;5075798;28;20199;-45
2022/05/31 08:11:08;;;;;;;6.23;3.93;;;15.20;99.90;;;;;;5075888;28;20551;-46
2022/05/31 08:13:34;;;;;;;7.40;3.60;;;15.20;99.90;;;;;;5075888;28;20255;-45
2022/05/31 08:16:01;;;;;;;8.03;3.63;;;15.30;99.90;;;;;;5075650;28;20279;-43
2022/05/31 08:18:27;;;;;;;4.30;3.60;;;15.30;99.90;;;;;;5075425;28;20217;-45
2022/05/31 08:21:05;;;;;;;5.60;3.87;;;15.40;99.90;;;;;;5075127;28;20262;-46
2022/05/31 08:23:31;;;;;;;6.50;4.03;;;15.40;99.90;;;;;;5075725;28;20183;-46
2022/05/31 08:25:57;;;;;;;6.23;3.87;;;15.50;99.90;;;;;;5075687;28;20547;-45
2022/05/31 08:28:23;;;;;;;6.33;3.67;;;15.60;99.90;;;;;;5075369;28;20282;-46
2022/05/31 08:30:53;;;;;;;6.17;3.80;;;15.80;99.90;;;;;;5075338;28;20266;-44
2022/05/31 08:33:18;;;;;;;5.20;3.80;;;15.90;99.90;;;;;;5075608;28;20191;-46
2022/05/31 08:35:44;;;;;;;6.13;3.60;;;16.10;99.90;;;;;;5075267;28;20267;-45
2022/05/31 08:38:10;;;;;;;7.53;3.43;;;16.40;99.90;;;;;;5075181;28;20207;-46
2022/05/31 08:40:58;;;;;;;6.47;3.17;;;16.60;99.90;;;;;;5075147;28;20183;-46
2022/05/31 08:43:42;;;;;;;7.37;3.50;;;16.70;99.90;;;;;;5075376;28;20166;-44
2022/05/31 08:46:16;;;;;;;6.10;3.63;;;16.80;99.90;;;;;;5075176;28;20155;-45
2022/05/31 08:48:57;;;;;;;8.07;3.47;;;17.00;99.90;;;;;;5075291;28;20192;-47
2022/05/31 08:57:17;;;;;;;6.40;3.33;;;17.30;99.90;;;;;;5075069;28;20233;-47
2022/05/31 08:59:52;;;;;;;6.97;3.23;;;17.40;99.90;;;;;;5074773;28;20199;-47
2022/05/31 09:02:33;;;;;;;4.80;2.70;;;17.40;99.90;;;;;;5074997;28;20220;-47
2022/05/31 09:05:06;;;;;;;4.10;2.67;;;17.60;99.90;;;;;;5074664;28;20155;-48
2022/05/31 09:07:57;;;;;;;2.87;2.50;;;17.60;99.90;;;;;;5074828;28;20195;-47
2022/05/31 09:10:47;;;;;;;4.63;2.90;;;17.60;99.90;;;;;;5074418;28;20562;-47
2022/05/31 09:13:26;;;;;;;6.30;2.53;;;17.70;99.90;;;;;;5075548;28;20184;-47
2022/05/31 09:15:57;;;;;;;5.00;2.70;;;17.80;99.90;;;;;;5056575;28;20221;-46
2022/05/31 09:18:52;;;;;;;4.50;2.50;;;17.80;99.90;;;;;;5074440;28;20213;-48
2022/05/31 09:21:26;;;;;;;4.30;2.87;;;17.80;99.90;;;;;;5074907;28;20548;-47
2022/05/31 09:23:55;;;;;;;3.53;2.70;;;17.90;99.90;;;;;;5074329;28;20246;-46
2022/05/31 09:26:29;;;;;;;5.10;2.80;;;18.00;99.90;;;;;;5074171;28;20202;-47
2022/05/31 09:29:02;;;;;;;5.40;2.40;;;18.10;99.90;;;;;;5074175;28;20282;-46
2022/05/31 09:31:33;;;;;;;7.17;3.00;;;18.10;99.90;;;;;;5074370;28;20190;-46
2022/05/31 09:34:19;;;;;;;3.67;2.50;;;18.30;99.90;;;;;;5073919;28;20176;-49
2022/05/31 09:37:05;;;;;;;6.90;2.70;;;18.40;99.90;;;;;;5074308;28;20646;-47
2022/05/31 09:39:39;;;;;;;8.40;2.57;;;18.70;99.90;;;;;;5073821;28;20203;-48
2022/05/31 09:42:20;;;;;;;3.00;2.20;;;18.80;99.90;;;;;;5073957;28;20239;-46
2022/05/31 09:44:51;;;;;;;5.60;2.30;;;18.80;99.90;;;;;;5073930;28;20160;-47
2022/05/31 09:47:24;;;;;;;4.27;2.40;;;18.80;99.90;;;;;;5073955;28;20199;-47
2022/05/31 09:49:51;;;;;;;2.63;2.20;;;18.90;99.90;;;;;;5074071;28;20168;-46
2022/05/31 09:52:38;;;;;;;4.30;2.43;;;19.10;99.90;;;;;;5073984;28;20179;-49
2022/05/31 09:58:12;;;;;;;3.50;2.53;;;19.40;99.90;;;;;;5073579;28;20205;-48
2022/05/31 10:01:05;;;;;;;5.33;2.13;;;19.40;99.90;;;;;;5073508;28;20182;-47
2022/05/31 10:03:48;;;;;;;5.10;2.33;;;19.50;99.90;;;;;;5073982;28;20700;-46
2022/05/31 10:06:23;;;;;;;4.03;2.57;;;19.40;99.90;;;;;;5073618;28;20152;-47
2022/05/31 10:08:53;;;;;;;5.37;2.90;;;19.40;99.90;;;;;;5073525;28;20195;-47
2022/05/31 10:11:34;;;;;;;5.60;2.37;;;19.30;99.90;;;;;;5073464;28;20172;-48
2022/05/31 10:14:05;;;;;;;2.70;2.20;;;19.40;99.90;;;;;;5073727;28;20174;-47
2022/05/31 10:16:33;;;;;;;3.27;2.33;;;19.20;99.90;;;;;;5073697;28;20308;-47
2022/05/31 10:19:01;;;;;;;6.70;2.50;;;19.10;99.90;;;;;;5073235;28;20701;-48
2022/05/31 10:21:41;;;;;;;2.90;2.03;;;19.20;99.90;;;;;;5073337;28;20321;-48
2022/05/31 10:24:27;;;;;;;3.63;2.50;;;19.20;99.90;;;;;;5073644;28;20163;-48
2022/05/31 10:27:26;;;;;;;3.83;2.43;;;19.30;99.90;;;;;;5073267;28;20186;-47
2022/05/31 10:29:57;;;;;;;2.83;2.10;;;19.60;99.90;;;;;;5055410;28;20206;-49
2022/05/31 10:32:35;;;;;;;4.40;1.80;;;19.50;99.90;;;;;;5073460;28;20164;-48
2022/05/31 10:35:26;;;;;;;3.27;2.17;;;19.50;99.90;;;;;;5073388;28;20171;-48
2022/05/31 10:37:57;;;;;;;4.37;2.23;;;19.60;99.90;;;;;;5073722;28;20225;-49
2022/05/31 10:40:44;;;;;;;2.40;2.20;;;19.70;99.90;;;;;;5073276;28;20576;-49
2022/05/31 10:43:33;;;;;;;5.53;2.57;;;20.00;99.90;;;;;;5073434;28;20584;-49
2022/05/31 10:46:19;;;;;;;2.90;2.13;;;20.20;99.90;;;;;;5073097;28;20156;-47
2022/05/31 10:48:48;;;;;;;3.80;2.27;;;20.20;99.90;;;;;;5073509;28;20191;-48
2022/05/31 10:51:56;;;;;;;3.20;1.97;;;20.40;99.90;;;;;;5073060;28;20203;-48
2022/05/31 10:54:40;;;;;;;2.60;2.13;;;20.50;99.90;;;;;;5062203;28;20195;-49
2022/05/31 10:57:23;;;;;;;4.03;1.97;;;20.80;99.90;;;;;;5073068;28;20159;-49
2022/05/31 11:00:08;;;;;;;3.43;1.97;;;20.90;99.90;;;;;;5073024;28;20222;-48
2022/05/31 11:02:57;;;;;;;3.10;1.80;;;20.90;99.90;;;;;;5073154;28;20187;-41
2022/05/31 11:05:50;;;;;;;3.83;1.87;;;21.00;99.90;;;;;;5073383;28;20172;-41
2022/05/31 11:11:59;;;;;;;4.63;2.50;;;21.30;99.90;;;;;;5073160;28;20163;-40
2022/05/31 11:14:55;;;;;;;3.83;2.17;;;21.00;99.90;;;;;;5073094;28;20534;-42
2022/05/31 11:17:56;;;;;;;3.00;1.67;;;20.90;99.90;;;;;;5073271;28;20250;-42
2022/05/31 11:20:32;;;;;;;3.63;2.07;;;21.20;99.90;;;;;;5072740;28;20199;-41
2022/05/31 11:23:13;;;;;;;2.07;1.67;;;21.40;99.90;;;;;;5073389;28;20278;-42
2022/05/31 11:25:44;;;;;;;3.83;1.77;;;21.70;99.90;;;;;;5073465;28;20537;-41
2022/05/31 11:28:39;;;;;;;2.87;2.10;;;21.80;99.90;;;;;;5072806;28;20223;-41
2022/05/31 11:31:22;;;;;;;3.83;1.87;;;22.10;99.90;;;;;;5072952;28;20246;-40
2022/05/31 11:34:25;;;;;;;2.40;1.60;;;22.10;99.90;;;;;;5072969;28;20167;-41
2022/05/31 11:37:24;;;;;;;2.93;2.07;;;21.90;99.90;;;;;;5054603;28;20663;-40
2022/05/31 11:40:10;;;;;;;2.57;1.90;;;21.90;99.90;;;;;;5072775;28;20595;-40
2022/05/31 11:43:03;;;;;;;2.53;1.70;;;22.10;99.90;;;;;;5072604;28;20156;-49
2022/05/31 11:45:32;;;;;;;2.37;1.77;;;22.30;99.90;;;;;;5031761;28;20188;-48
2022/05/31 11:48:07;;;;;;;1.60;1.50;;;22.20;99.90;;;;;;5072443;28;20196;-48
2022/05/31 11:50:48;;;;;;;2.47;1.80;;;22.20;99.90;;;;;;5072611;28;20178;-48
2022/05/31 11:53:51;;;;;;;3.63;1.90;;;22.30;99.90;;;;;;5072470;28;20638;-48
2022/05/31 11:56:25;;;;;;;4.23;1.83;;;22.40;99.90;;;;;;5072626;28;20198;-48
2022/05/31 11:59:03;;;;;;;4.70;1.70;;;22.50;99.90;;;;;;5075798;28;20757;-48
2022/05/31 12:01:37;;;;;;;1.97;1.77;;;22.50;99.90;;;;;;5057924;28;20282;-47
2022/05/31 12:04:05;;;;;;;3.03;2.00;;;22.50;99.90;;;;;;5076136;28;20166;-49
2022/05/31 12:06:36;;;;;;;6.20;1.90;;;22.50;99.90;;;;;;5076114;28;20623;-48
2022/05/31 12:09:32;;;;;;;3.03;1.70;;;22.50;99.90;;;;;;5075930;28;20260;-48
2022/05/31 12:12:15;;;;;;;4.43;1.90;;;22.40;99.90;;;;;;5076032;28;20182;-50
2022/05/31 12:14:47;;;;;;;3.50;1.97;;;22.50;99.90;;;;;;5075710;28;20214;-47
2022/05/31 12:17:16;;;;;;;2.93;1.90;;;22.40;99.90;;;;;;5075856;28;20562;-47
2022/05/31 12:20:25;;;;;;;2.10;1.90;;;22.40;99.90;;;;;;5075851;28;20706;-48
2022/05/31 12:23:15;;;;;;;2.27;1.80;;;22.40;99.90;;;;;;5044457;28;20183;-48
2022/05/31 12:25:46;;;;;;;3.43;2.10;;;22.40;99.90;;;;;;5075855;28;20183;-49
2022/05/31 12:28:31;;;;;;;4.07;1.90;;;22.40;99.90;;;;;;5075569;28;20282;-47
2022/05/31 12:31:14;;;;;;;3.00;1.97;;;22.60;99.90;;;;;;5075367;28;20171;-47
2022/05/31 12:33:44;;;;;;;2.40;2.13;;;22.70;99.90;;;;;;5076214;28;20163;-47
2022/05/31 12:36:55;;;;;;;2.30;1.87;;;22.70;99.90;;;;;;5075571;28;20259;-48
2022/05/31 12:39:24;;;;;;;3.07;1.70;;;22.70;99.90;;;;;;5055010;28;20230;-48
2022/05/31 12:41:51;;;;;;;4.90;2.50;;;22.70;99.90;;;;;;5075475;28;20294;-48
2022/05/31 12:44:35;;;;;;;3.63;1.77;;;22.80;99.90;;;;;;5075353;28;20180;-48
2022/05/31 12:47:26;;;;;;;2.63;2.30;;;22.90;99.90;;;;;;5075143;28;20168;-49
2022/05/31 12:50:02;;;;;;;2.83;2.20;;;22.90;99.90;;;;;;5075339;28;20164;-48
2022/05/31 12:54:59;;;;;;;4.47;2.50;;;22.90;99.90;;;;;;5074936;28;20570;-49
2022/05/31 12:58:26;;;;;;;2.43;1.93;;;22.80;99.90;;;;;;5074743;28;20207;-48
2022/05/31 13:00:42;;;;;;;4.17;2.40;;;22.70;99.90;;;;;;5074442;28;20277;-49
2022/05/31 13:03:46;;;;;;;6.40;2.40;;;22.80;99.90;;;;;;5075254;28;20258;-48
2022/05/31 13:06:37;;;;;;;2.50;2.20;;;22.80;99.90;;;;;;5064390;28;20194;-49
2022/05/31 13:09:13;;;;;;;3.67;2.37;;;22.90;99.90;;;;;;5074047;28;20188;-47
2022/05/31 13:20:39;;;;;;;10.07;2.77;;;22.60;99.90;;;;;;5074692;28;20302;-48
2022/05/31 13:23:22;;;;;;;4.63;2.40;;;22.50;99.90;;;;;;5074266;28;20170;-48
2022/05/31 13:26:00;;;;;;;5.03;2.50;;;22.50;99.90;;;;;;5074613;28;20163;-47
2022/05/31 13:28:33;;;;;;;4.97;2.37;;;22.50;99.90;;;;;;5074389;28;20318;-47
2022/05/31 13:31:21;;;;;;;4.10;2.40;;;22.50;99.90;;;;;;5074357;28;20202;-48
2022/05/31 13:33:57;;;;;;;4.80;2.40;;;22.40;99.90;;;;;;5074074;28;20190;-49
2022/05/31 13:36:25;;;;;;;3.97;2.40;;;22.20;99.90;;;;;;5074304;28;20175;-47
2022/05/31 13:38:57;;;;;;;3.10;2.23;;;22.20;99.90;;;;;;5073760;28;20735;-47
2022/05/31 13:41:22;;;;;;;3.60;2.23;;;22.20;99.90;;;;;;5074180;28;20198;-48
2022/05/31 13:43:55;;;;;;;4.30;2.00;;;22.20;99.90;;;;;;5074144;28;20184;-48